默认 日期 大小 文件数 浏览量 最新下载 xml
20.08磁力链接相关资源由用户搜索指令自动获取,结果来源于网络,本站不存储任何资料,亦不承担任何责任,请于24小时内删除,搜索到32792个磁力,显示前4000条数据,用时32ms。
    {"BestHDWallpapersPack997": {"BestHDWallpapersPack997_1.jpg": 684914, "BestHDWallpapersPack997_2.jpg": 1150128, "BestHDWallpapersPack997_3.jpg": 597745, "BestHDWallpapersPack997_4.jpg": 462209, "BestHDWallpapersPack997_5.jpg": 1050958, " ...
创建时间: 2018-12-24 22:41:11 大小:217.76 MB 文件数量:236 热度:11 最近下载:2025-08-01 08:23:03
    {"Torrent Downloaded From ArenaBG.ch.txt": 0, "[EuroTeenErotica] Victoria - Pink Pounding Debut (20.08.2018) rq.mp4": 250324493}
创建时间: 2018-12-24 23:29:34 大小:238.73 MB 文件数量:2 热度:12 最近下载:2025-08-01 19:09:09
    {"20.08.2017 — Eredivisie — Round 02 — Ajax v. Groningen (1).ts": 1404047920, "20.08.2017 — Eredivisie — Round 02 — Ajax v. Groningen (2).ts": 1382370204}
创建时间: 2018-12-25 00:48:17 大小:2.6 GB 文件数量:2 热度:13 最近下载:2025-07-30 16:38:04
    {"sample": {"xtm-tre-sample.mkv": 15698707}, "xtm-tre.mkv": 1467767670, "xtm-tre.nfo": 11144}
创建时间: 2018-12-25 02:09:03 大小:1.38 GB 文件数量:3 热度:29 最近下载:2025-07-30 09:57:03
    {"Torrent Downloaded From ArenaBG.ch.txt": 0, "[TrickyOldTeacher] Lady Bug (20.08.2018) rq.mp4": 252505418}
创建时间: 2018-12-25 04:41:24 大小:240.81 MB 文件数量:2 热度:11 最近下载:2025-08-01 04:34:07
    {"Readme.inf": 828, "WWW.YIFY-TORRENTS.COM.jpg": 115260, "Bentley STAAD.Pro V8i 20.08.22.44 + Crack.exe": 1681554, "Bentley STAAD.Pro V8i 20.08.22.44 + Crack.nfo": 720}
创建时间: 2018-12-25 12:00:15 大小:1.72 MB 文件数量:4 热度:13 最近下载:2025-08-02 06:46:03
    ... , "[MySistersHotFriend] Jaye Summers, Kyle Mason (20.08.2018) rq.mp4": 238324334}
创建时间: 2018-12-25 14:48:39 大小:227.57 MB 文件数量:6 热度:14 最近下载:2025-07-30 05:19:04
    {"WPE05.jpg": 130675, "WPE05.mp4": 1375466122, "QXL121.mp4": 1397520864, "RCT639.mp4": 1855101918, "SMS066.mp4": 1405680994, "WDI036.jpg": 358194, "QRDA039.jpg": 163760, "QRDA039.mp4": 1230650663, "SOLO025.jpg": 847938, "SOLO025.mp4": 927148094, "TMHP018. ...
创建时间: 2018-12-25 17:45:27 大小:8.95 GB 文件数量:29 热度:9 最近下载:2025-07-30 16:09:02
    {"Часть 1.mkv": 1828657080, "Часть 2.mkv": 346995820}
创建时间: 2018-12-25 19:12:45 大小:2.03 GB 文件数量:2 热度:18 最近下载:2025-08-09 14:31:03
    {"X02. Border Security + The Force ... Behind the Line [20-08-2014].mp4": 1125034903, "X02. Border Security + The Force ... Behind the Line [20-08-2014].mp4_thumbs_[2014.10.08_00.51.53].png": 904469}
创建时间: 2018-12-26 14:29:21 大小:1.05 GB 文件数量:2 热度:11 最近下载:2025-08-01 15:44:15
    {"BestHDWallpapersPack1343": {"BestHDWallpapersPack1343_1.jpg": 697434, "BestHDWallpapersPack1343_2.jpg": 560563, "BestHDWallpapersPack1343_3.jpg": 1279464, "BestHDWallpapersPack1343_4.jpg": 1188651, "BestHDWallpapersPack1343_5.jpg": 2589241, " ...
创建时间: 2018-12-27 03:13:05 大小:240.75 MB 文件数量:244 热度:8 最近下载:2025-08-02 08:03:10
    ... - Live At Castle Donington, 20.08.1988.log": 6422, "Helloween ... - Live At Castle Donington, 20.08.1988.cue": 869, "Helloween ... - Live At Castle Donington, 20.08.1988.log": 5146, "Megadeth ... - Live At Castle Donington, 20.08.1988.flac": 346758693, "Helloween ...
创建时间: 2018-12-28 22:45:52 大小:864.75 MB 文件数量:18 热度:16 最近下载:2025-07-30 08:15:03
    {"BIG TITS AT SCHOOL.txt": 78408, "BigTitsAtSchool - Devon Lee (Busted).wmv": 175164841, "BigTitsAtSchool - Deauxma (The Tutor).wmv": 338102245, "BigTitsAtSchool - Penny Flame (Busted).wmv": 583675696, "BigTitsAtSchool - Ava Devine (Skipping).wmv": ...
创建时间: 2018-12-29 00:38:19 大小:53.93 GB 文件数量:159 热度:153 最近下载:2025-09-25 21:48:04
    {"Freaks Of Cock - Kiki.avi": 49871293, "Freaks Of Cock - Laney.avi": 49977550, "Freaks Of Cock - Mia Lina.avi": 389565933, "Freaks Of Cock - Allie Ray.avi": 251070419, "Freaks Of Cock - Cody Lane.avi": 133722748, "Freaks Of Cock - Lucy Fire.avi": ...
创建时间: 2018-12-29 17:30:46 大小:33.13 GB 文件数量:93 热度:110 最近下载:2025-07-31 20:11:03
    {"Torrent Downloaded From ArenaBG.ch.txt": 0, "[BadTeensPunished] Megan Winters - Redhead Step Daughter (20.08.2018) rq.mp4": 346310228}
创建时间: 2018-12-29 18:38:17 大小:330.27 MB 文件数量:2 热度:10 最近下载:2025-08-07 22:25:03
    {"Readme.pdf": 12088, "Torrent downloaded from 1337x.org.txt": 84, "IPTV Digital TV WORLD XXX Films Music ( 20.08.2018).exe": 15134578, "IPTV Digital TV WORLD XXX Films Music ( 20.08.2018).nfo": 344}
创建时间: 2018-12-29 23:22:58 大小:14.45 MB 文件数量:4 热度:7 最近下载:2025-07-30 00:56:02
    {"1.ts": 575140000, "2.ts": 553958168}
创建时间: 2018-12-30 01:02:23 大小:1.05 GB 文件数量:2 热度:12 最近下载:2025-08-03 11:43:03
    ... Would Be You.mp3": 9638182, "20. Phillip Phillips - Gone, Gone, Gone ... You Did In.mp3": 7544198, "08. Macklemore & Ryan Lewis Feat. - Can ...
创建时间: 2018-12-30 05:51:43 大小:888.67 MB 文件数量:100 热度:5 最近下载:2025-07-30 04:58:01
    {"032-kiiara_-_gold.mp3": 9194199, "054-wale_-_my_pyt.mp3": 9585101, "042-beyonce_-_sorry.mp3": 9337938, "049-future_-_wicked.mp3": 7080355, "046-tory_lanez_-_luv.mp3": 9278824, "068-chris_lane_-_fix.mp3": 7725131, "012-desiigner_-_panda.mp3": 4101773, " ...
创建时间: 2018-12-30 11:36:04 大小:788.59 MB 文件数量:100 热度:10 最近下载:2025-08-07 00:16:04
    ... -_a_state_of_trance_727_-_2015-08-20.cue": 3666, "armin_van_buuren_-_a_state_of_trance_727_-_2015-08-20.mp3": 286686574 ... Sixma - Stellar.mp3": 7259472, "08 Mino Safy - Patience.mp3": ... Kinetica - Aurealis.mp3": 10968890, "20 Aly & Fila with Ferry Tayle ...
创建时间: 2018-12-30 15:24:50 大小:569.36 MB 文件数量:36 热度:10 最近下载:2025-08-01 12:08:07